< Typhoon 200225 2002 Season Typhoon 200301 >
Typhoon 200226 (PONGSONA)
General InformationTrack Information on Google MapsDetailed Wind InformationList of All Images || Disaster Info.ResourceGoogle EarthGE AnimationAtom FeedGeoJSON
Detalied Best Track (Time Zone = UTC)
Year Month Day Hour Lat. Long. Pressure (hPa) Wind (kt) Class Image Chart
2002 12 2 06 7.2 164.9 1004 0 2 Image Chart
2002 12 2 12 8.0 163.7 1004 0 2 Image Chart
2002 12 2 18 8.3 163.2 1004 0 2 Image Chart
2002 12 3 00 8.5 162.6 1004 0 2 Image Chart
2002 12 3 06 8.7 162.0 1002 0 2 Image Chart
2002 12 3 12 8.7 161.2 1000 35 3 Image Chart
2002 12 3 18 8.8 160.9 994 40 3 Image Chart
2002 12 4 00 8.5 159.8 992 40 3 Image Chart
2002 12 4 06 8.1 159.4 990 45 3 Image Chart
2002 12 4 12 8.1 159.2 990 45 3 Image Chart
2002 12 4 18 8.1 158.6 980 55 4 Image Chart
2002 12 5 00 8.0 157.3 980 55 4 Image Chart
2002 12 5 06 8.0 156.3 980 55 4 Image Chart
2002 12 5 12 8.3 155.2 975 60 4 Image Chart
2002 12 5 18 8.6 154.1 970 65 5 Image Chart
2002 12 6 00 9.1 152.9 970 65 5 Image Chart
2002 12 6 06 9.1 151.8 970 65 5 Image Chart
2002 12 6 12 9.3 151.0 970 65 5 Image Chart
2002 12 6 18 9.4 150.1 965 70 5 Image Chart
2002 12 7 00 10.1 149.2 960 75 5 Image Chart
2002 12 7 06 10.5 148.0 955 80 5 Image Chart
2002 12 7 12 10.9 147.4 955 80 5 Image Chart
2002 12 7 18 12.0 146.4 950 80 5 Image Chart
2002 12 8 00 12.6 145.7 950 80 5 Image Chart
2002 12 8 06 13.5 145.2 945 85 5 Image Chart
2002 12 8 12 14.4 144.6 940 90 5 Image Chart
2002 12 8 18 15.2 144.3 940 90 5 Image Chart
2002 12 9 00 16.0 143.8 940 90 5 Image Chart
2002 12 9 06 16.9 143.6 940 90 5 Image Chart
2002 12 9 12 18.1 143.7 940 90 5 Image Chart
2002 12 9 18 19.1 144.3 940 90 5 Image Chart
2002 12 10 00 20.5 145.8 945 85 5 Image Chart
2002 12 10 06 22.4 147.3 945 85 5 Image Chart
2002 12 10 12 24.0 150.1 950 80 5 Image Chart
2002 12 10 18 25.3 153.3 965 70 5 Image Chart
2002 12 11 00 27.7 157.1 980 55 4 Image Chart
2002 12 11 06 29.0 160.0 996 0 6 Image Chart
2002 12 11 12 30.3 164.5 1004 0 6 Image Chart
2002 12 11 18 32.5 169.2 1006 0 6 Image Chart
Japan Meteorological Agency Best Track Data | Correction Date : 2006-01-18
< Typhoon 200225 2002 Season Typhoon 200301 >

Help